Labarre, Louisiana
Current Conditions -  °F | °C
As of 3:15 PM on Wednesday 17 Dec 2014 (Local Time) from KHZR Reporting Station
Scattered Clouds Scattered Clouds  
Wind Chill: 60°   Ceiling: Unl
Heat Index: 60°   Visibility: 10mi
Dew Point: 40°   Wind: 6mph
Humidity: 48%   Direction: 80°E
Pressure: 30.18"   Gusts: NA
Location:  30.71°N, 91.55°W
Report Text: KHZR 172115Z AUTO 08005KT 10SM SCT100 15/04 A3018 RMK AO2 T01530043
Loading
Personal Weather Stations






























Interactive Weather Map New forecast layout! Learn more

10-Day Weather Forecast

Advertisements
Track Severe Weather on mobile